Mars — XPC8385 — position and weather

sailwx.info

Track history (hours):
 
Tides and Currents Weather Stations Pressure Air Temp Water Temp Dewpoint Dewpoint Depression Visibility Wind Speed Wind Dir Waves Ship Positions

Mars

Last reported at 2016-Aug-28 09:15 UTC. Time now 2016-Aug-28 10:29 UTC.
Position N 55°17' E 014°48'.

Length 14 m; draft 1.7 m.

Type: Pilot. MMSI: 219001058.

Date/timePositionNaut miles runAvg speedWind from/ knotsBaromVisibWave heightAir tempDewpointWater temp
2016-Aug-28 09:15N 55°17' E 014°48'0 0.0
2016-Aug-28 08:33N 55°17' E 014°48'0 0.0
2016-Aug-28 07:09N 55°17' E 014°48'0 0.0
2016-Aug-28 06:32N 55°17' E 014°48'0 0.0
2016-Aug-28 05:23N 55°17' E 014°48'0 0.0
2016-Aug-28 01:17N 55°17' E 014°48'0 0.0
2016-Aug-28 00:29N 55°17' E 014°48'0 0.0
2016-Aug-27 23:29N 55°17' E 014°48'0 0.0
2016-Aug-27 22:29N 55°17' E 014°48'0 0.0
2016-Aug-27 21:29N 55°17' E 014°48'0 0.0
2016-Aug-27 20:28N 55°17' E 014°48'0 0.0
2016-Aug-27 19:22N 55°17' E 014°48'0 0.0
2016-Aug-27 18:16N 55°17' E 014°48'0 0.0
2016-Aug-27 17:31N 55°17' E 014°48'0 0.0
2016-Aug-27 16:31N 55°17' E 014°48'0 0.0
2016-Aug-27 15:31N 55°17' E 014°48'0 0.0
2016-Aug-27 14:28N 55°17' E 014°48'0 0.0
2016-Aug-27 13:28N 55°17' E 014°48'0 0.0
2016-Aug-27 12:28N 55°17' E 014°48'0 0.0
2016-Aug-27 11:28N 55°17' E 014°48'0 0.0
2016-Aug-27 10:22N 55°17' E 014°48'0 0.0
2016-Aug-27 09:28N 55°17' E 014°48'0 0.0
2016-Aug-27 08:28N 55°17' E 014°48'0 0.0
2016-Aug-27 07:28N 55°17' E 014°48'0 0.0
2016-Aug-27 06:10N 55°17' E 014°48'0 0.0
2016-Aug-27 04:22N 55°17' E 014°48'0 0.0
2016-Aug-27 03:34N 55°17' E 014°48'0 0.0
2016-Aug-27 02:33N 55°17' E 014°48'0 0.0
2016-Aug-27 01:33N 55°17' E 014°48'0 0.0
2016-Aug-27 00:33N 55°17' E 014°48'0 0.0
2016-Aug-26 23:33N 55°17' E 014°48'2 1.7
2016-Aug-26 22:33N 55°18' E 014°51'2 1.7
2016-Aug-26 21:32N 55°17' E 014°48'0 0.0
2016-Aug-26 20:31N 55°17' E 014°48'0 0.0
2016-Aug-26 19:29N 55°17' E 014°48'0 0.0
2016-Aug-26 18:29N 55°17' E 014°48'0 0.0
2016-Aug-26 17:23N 55°17' E 014°48'0 0.0
2016-Aug-26 16:29N 55°17' E 014°48'2 2.5
2016-Aug-26 15:33N 55°18' E 014°51'2 2.2
2016-Aug-26 14:29N 55°17' E 014°48'2 1.7
2016-Aug-26 13:16N 55°15' E 014°50'0 0.0
2016-Aug-26 12:28N 55°15' E 014°50'0 0.0
2016-Aug-26 11:16N 55°15' E 014°50'0 0.0
2016-Aug-26 10:16N 55°15' E 014°50'0 0.0
2016-Aug-26 09:15N 55°15' E 014°50'2 1.4
2016-Aug-26 07:34N 55°17' E 014°49'2 1.9
2016-Aug-26 06:16N 55°15' E 014°50'0 0.0
2016-Aug-26 04:22N 55°15' E 014°50'0 0.0
2016-Aug-26 03:04N 55°15' E 014°50'0 0.0
2016-Aug-26 02:22N 55°15' E 014°50'0 0.0
2016-Aug-26 01:22N 55°15' E 014°50'0 0.0
2016-Aug-26 00:28N 55°15' E 014°50'0 0.0
2016-Aug-25 22:16N 55°15' E 014°50'0 0.0
2016-Aug-25 21:22N 55°15' E 014°50'0 0.0
2016-Aug-25 19:28N 55°15' E 014°50'0 0.0
2016-Aug-25 18:28N 55°15' E 014°50'0 0.0
2016-Aug-25 17:28N 55°15' E 014°50'0 0.0
2016-Aug-25 16:28N 55°15' E 014°50'0 0.0
2016-Aug-25 15:22N 55°15' E 014°50'0 0.0
2016-Aug-25 14:28N 55°15' E 014°50'0 0.0
2016-Aug-25 13:10N 55°15' E 014°50'0 0.0
2016-Aug-25 12:28N 55°15' E 014°50'0 0.0
2016-Aug-25 11:04N 55°15' E 014°50'0 0.0
2016-Aug-25 09:28N 55°15' E 014°50'0 0.0
2016-Aug-25 08:28N 55°15' E 014°50'0 0.0
2016-Aug-25 07:28N 55°15' E 014°50'0 0.0
2016-Aug-25 04:27N 55°15' E 014°50'0 0.0
2016-Aug-25 03:33N 55°15' E 014°50'0 0.0
2016-Aug-25 02:33N 55°15' E 014°50'0 0.0
2016-Aug-25 00:27N 55°15' E 014°50'0 0.0
2016-Aug-24 23:33N 55°15' E 014°50'0 0.0
2016-Aug-24 21:27N 55°15' E 014°50'0 0.0
2016-Aug-24 20:27N 55°15' E 014°50'0 0.0
2016-Aug-24 19:09N 55°15' E 014°50'0 0.0
2016-Aug-24 17:15N 55°15' E 014°50'0 0.0
2016-Aug-24 16:33N 55°15' E 014°50'0 0.0
2016-Aug-24 15:33N 55°15' E 014°50'0 0.0
2016-Aug-24 14:33N 55°15' E 014°50'0 0.0
2016-Aug-24 13:27N 55°15' E 014°50'0 0.0
2016-Aug-24 12:21N 55°15' E 014°50'0 0.0
2016-Aug-24 11:33N 55°15' E 014°50'0 0.0
2016-Aug-24 09:33N 55°15' E 014°50'0 0.0
2016-Aug-24 08:33N 55°15' E 014°50'2 0.1
2016-Aug-23 16:33N 55°17' E 014°48'0 0.0
2016-Aug-23 15:33N 55°17' E 014°48'0 0.0
2016-Aug-23 14:29N 55°17' E 014°48'0 0.0
2016-Aug-23 13:26N 55°17' E 014°48'0 0.0
2016-Aug-23 12:33N 55°17' E 014°48'0 0.0
2016-Aug-23 11:32N 55°17' E 014°48'0 0.0
2016-Aug-23 10:32N 55°17' E 014°48'0 0.0
2016-Aug-23 09:32N 55°17' E 014°48'0 0.0
2016-Aug-23 08:26N 55°17' E 014°48'0 0.0
2016-Aug-23 07:26N 55°17' E 014°48'0 0.0
2016-Aug-23 06:32N 55°17' E 014°48'0 0.0
2016-Aug-23 05:32N 55°17' E 014°48'0 0.0
2016-Aug-23 04:26N 55°17' E 014°48'0 0.0
2016-Aug-23 03:32N 55°17' E 014°48'0 0.0
2016-Aug-23 02:32N 55°17' E 014°48'0 0.0
2016-Aug-23 01:20N 55°17' E 014°48'0 0.0
2016-Aug-23 00:32N 55°17' E 014°48'0 0.0
2016-Aug-22 23:24N 55°17' E 014°48'0 0.0
2016-Aug-22 22:30N 55°17' E 014°48'0 0.0
2016-Aug-22 21:30N 55°17' E 014°48'0 0.0
2016-Aug-22 20:30N 55°17' E 014°48'2 2.3
2016-Aug-22 19:33N 55°17' E 014°52'2 2.1
2016-Aug-22 18:32N 55°17' E 014°48'0 0.0
2016-Aug-22 17:32N 55°17' E 014°48'0 0.0
2016-Aug-22 16:26N 55°17' E 014°48'0 0.0
2016-Aug-22 15:26N 55°17' E 014°48'0 0.0
2016-Aug-22 14:20N 55°17' E 014°48'2 0.4
2016-Aug-22 09:26N 55°15' E 014°50'0 0.0
2016-Aug-22 08:26N 55°15' E 014°50'0 0.0
2016-Aug-22 07:32N 55°15' E 014°50'0 0.0
2016-Aug-22 05:20N 55°15' E 014°50'0 0.0
2016-Aug-22 04:20N 55°15' E 014°50'0 0.0
2016-Aug-22 03:32N 55°15' E 014°50'0 0.0
2016-Aug-22 00:26N 55°15' E 014°50'3 3.8
2016-Aug-21 23:33N 55°18' E 014°47'1 1.1
2016-Aug-21 22:29N 55°17' E 014°48'0 0.0
2016-Aug-21 21:29N 55°17' E 014°48'0 0.0
2016-Aug-21 20:29N 55°17' E 014°48'0 0.0
2016-Aug-21 19:29N 55°17' E 014°48'0 0.0
2016-Aug-21 18:29N 55°17' E 014°48'0 0.0
2016-Aug-21 17:17N 55°17' E 014°48'0 0.0
2016-Aug-21 16:23N 55°17' E 014°48'0 0.0
2016-Aug-21 15:23N 55°17' E 014°48'0 0.0
2016-Aug-21 14:29N 55°17' E 014°48'0 0.0
2016-Aug-21 13:30N 55°17' E 014°48'0 0.0
2016-Aug-21 12:30N 55°17' E 014°48'0 0.0
2016-Aug-21 11:24N 55°17' E 014°48'0 0.0
2016-Aug-21 10:30N 55°17' E 014°48'0 0.0
2016-Aug-21 09:30N 55°17' E 014°48'0 0.0
2016-Aug-21 08:30N 55°17' E 014°48'0 0.0
2016-Aug-21 07:24N 55°17' E 014°48'5 6.2
2016-Aug-21 06:33N 55°18' E 014°57'5 5.0
2016-Aug-21 05:31N 55°17' E 014°48'0 0.0
2016-Aug-21 04:25N 55°17' E 014°48'0 0.0
2016-Aug-21 03:31N 55°17' E 014°48'0 0.0
2016-Aug-21 02:25N 55°17' E 014°48'0 0.0
2016-Aug-21 01:19N 55°17' E 014°48'0 0.0
2016-Aug-21 00:31N 55°17' E 014°48'0 0.0
2016-Aug-20 23:31N 55°17' E 014°48'0 0.0
2016-Aug-20 22:31N 55°17' E 014°48'0 0.0
2016-Aug-20 21:32N 55°17' E 014°48'0 0.0
2016-Aug-20 20:32N 55°17' E 014°48'0 0.0
2016-Aug-20 19:31N 55°17' E 014°48'0 0.0
2016-Aug-20 18:26N 55°17' E 014°48'0 0.0
2016-Aug-20 17:26N 55°17' E 014°48'0 0.0
2016-Aug-20 16:31N 55°17' E 014°48'1 0.3
2016-Aug-20 12:33N 55°17' E 014°50'1 1.0
2016-Aug-20 11:23N 55°17' E 014°48'0 0.0
2016-Aug-20 10:05N 55°17' E 014°48'0 0.0
2016-Aug-20 09:23N 55°17' E 014°48'0 0.0
2016-Aug-20 07:28N 55°17' E 014°48'0 0.0
2016-Aug-20 06:22N 55°17' E 014°48'0 0.0
2016-Aug-20 05:32N 55°17' E 014°48'0 0.0
2016-Aug-20 04:32N 55°17' E 014°48'0 0.0
2016-Aug-20 03:32N 55°17' E 014°48'2 2.0
2016-Aug-20 02:28N 55°15' E 014°50'0 0.0
2016-Aug-20 00:22N 55°15' E 014°50'0 0.0
2016-Aug-19 23:16N 55°15' E 014°50'0 0.0
2016-Aug-19 22:28N 55°15' E 014°50'0 0.0
2016-Aug-19 21:28N 55°15' E 014°50'0 0.0
2016-Aug-19 20:28N 55°15' E 014°50'0 0.0
2016-Aug-19 19:28N 55°15' E 014°50'0 0.0
2016-Aug-19 18:28N 55°15' E 014°50'0 0.0
2016-Aug-19 17:22N 55°15' E 014°50'0 0.0
2016-Aug-19 16:34N 55°15' E 014°50'0 0.0
2016-Aug-19 15:34N 55°15' E 014°50'0 0.0
2016-Aug-19 14:33N 55°15' E 014°50'0 0.0
2016-Aug-19 13:33N 55°15' E 014°50'0 0.0
2016-Aug-19 12:33N 55°15' E 014°50'0 0.0
2016-Aug-19 11:27N 55°15' E 014°50'0 0.0
2016-Aug-19 10:33N 55°15' E 014°50'0 0.0
2016-Aug-19 09:21N 55°15' E 014°50'0 0.0
2016-Aug-19 08:33N 55°15' E 014°50'0 0.0
2016-Aug-19 07:33N 55°15' E 014°50'0 0.1
2016-Aug-19 06:28N 55°15' E 014°50'0 0.0
2016-Aug-19 05:28N 55°15' E 014°50'0 0.0
2016-Aug-19 04:28N 55°15' E 014°50'0 0.0
2016-Aug-19 03:16N 55°15' E 014°50'0 0.0
2016-Aug-19 02:28N 55°15' E 014°50'0 0.0
2016-Aug-19 01:28N 55°15' E 014°50'0 0.0
2016-Aug-19 00:28N 55°15' E 014°50'0 0.0
2016-Aug-18 23:28N 55°15' E 014°50'0 0.0
2016-Aug-18 22:28N 55°15' E 014°50'0 0.0
2016-Aug-18 21:22N 55°15' E 014°50'0 0.0
2016-Aug-18 20:16N 55°15' E 014°50'0 0.0
2016-Aug-18 19:04N 55°15' E 014°50'0 0.0
2016-Aug-18 18:22N 55°15' E 014°50'0 0.0
2016-Aug-18 17:22N 55°15' E 014°50'0 0.0
2016-Aug-18 16:28N 55°15' E 014°50'0 0.0
2016-Aug-18 15:28N 55°15' E 014°50'0 0.0
2016-Aug-18 14:28N 55°15' E 014°50'0 0.0
2016-Aug-18 13:16N 55°15' E 014°50'0 0.0
2016-Aug-18 12:28N 55°15' E 014°50'0 0.0
2016-Aug-18 11:22N 55°15' E 014°50'0 0.0
2016-Aug-18 10:22N 55°15' E 014°50'0 0.0
2016-Aug-18 09:22N 55°15' E 014°50'  
Track history (hours):
 
Tides and Currents Weather Stations Pressure Air Temp Water Temp Dewpoint Dewpoint Depression Visibility Wind Speed Wind Dir Waves Ship Positions

Mars

Last reported at 2016-Aug-28 09:15 UTC. Time now 2016-Aug-28 10:29 UTC.
Position N 55°17' E 014°48'.

Length 14 m; draft 1.7 m.

Type: Pilot. MMSI: 219001058.

Date/timePositionNaut miles runAvg speedWind from/ knotsBaromVisibWave heightAir tempDewpointWater temp
2016-Aug-28 09:15N 55°17' E 014°48'0 0.0
2016-Aug-28 08:33N 55°17' E 014°48'0 0.0
2016-Aug-28 07:09N 55°17' E 014°48'0 0.0
2016-Aug-28 06:32N 55°17' E 014°48'0 0.0
2016-Aug-28 05:23N 55°17' E 014°48'0 0.0
2016-Aug-28 01:17N 55°17' E 014°48'0 0.0
2016-Aug-28 00:29N 55°17' E 014°48'0 0.0
2016-Aug-27 23:29N 55°17' E 014°48'0 0.0
2016-Aug-27 22:29N 55°17' E 014°48'0 0.0
2016-Aug-27 21:29N 55°17' E 014°48'0 0.0
2016-Aug-27 20:28N 55°17' E 014°48'0 0.0
2016-Aug-27 19:22N 55°17' E 014°48'0 0.0
2016-Aug-27 18:16N 55°17' E 014°48'0 0.0
2016-Aug-27 17:31N 55°17' E 014°48'0 0.0
2016-Aug-27 16:31N 55°17' E 014°48'0 0.0
2016-Aug-27 15:31N 55°17' E 014°48'0 0.0
2016-Aug-27 14:28N 55°17' E 014°48'0 0.0
2016-Aug-27 13:28N 55°17' E 014°48'0 0.0
2016-Aug-27 12:28N 55°17' E 014°48'0 0.0
2016-Aug-27 11:28N 55°17' E 014°48'0 0.0
2016-Aug-27 10:22N 55°17' E 014°48'0 0.0
2016-Aug-27 09:28N 55°17' E 014°48'0 0.0
2016-Aug-27 08:28N 55°17' E 014°48'0 0.0
2016-Aug-27 07:28N 55°17' E 014°48'0 0.0
2016-Aug-27 06:10N 55°17' E 014°48'0 0.0
2016-Aug-27 04:22N 55°17' E 014°48'0 0.0
2016-Aug-27 03:34N 55°17' E 014°48'0 0.0
2016-Aug-27 02:33N 55°17' E 014°48'0 0.0
2016-Aug-27 01:33N 55°17' E 014°48'0 0.0
2016-Aug-27 00:33N 55°17' E 014°48'0 0.0
2016-Aug-26 23:33N 55°17' E 014°48'2 1.7
2016-Aug-26 22:33N 55°18' E 014°51'2 1.7
2016-Aug-26 21:32N 55°17' E 014°48'0 0.0
2016-Aug-26 20:31N 55°17' E 014°48'0 0.0
2016-Aug-26 19:29N 55°17' E 014°48'0 0.0
2016-Aug-26 18:29N 55°17' E 014°48'0 0.0
2016-Aug-26 17:23N 55°17' E 014°48'0 0.0
2016-Aug-26 16:29N 55°17' E 014°48'2 2.5
2016-Aug-26 15:33N 55°18' E 014°51'2 2.2
2016-Aug-26 14:29N 55°17' E 014°48'2 1.7
2016-Aug-26 13:16N 55°15' E 014°50'0 0.0
2016-Aug-26 12:28N 55°15' E 014°50'0 0.0
2016-Aug-26 11:16N 55°15' E 014°50'0 0.0
2016-Aug-26 10:16N 55°15' E 014°50'0 0.0
2016-Aug-26 09:15N 55°15' E 014°50'2 1.4
2016-Aug-26 07:34N 55°17' E 014°49'2 1.9
2016-Aug-26 06:16N 55°15' E 014°50'0 0.0
2016-Aug-26 04:22N 55°15' E 014°50'0 0.0
2016-Aug-26 03:04N 55°15' E 014°50'0 0.0
2016-Aug-26 02:22N 55°15' E 014°50'0 0.0
2016-Aug-26 01:22N 55°15' E 014°50'0 0.0
2016-Aug-26 00:28N 55°15' E 014°50'0 0.0
2016-Aug-25 22:16N 55°15' E 014°50'0 0.0
2016-Aug-25 21:22N 55°15' E 014°50'0 0.0
2016-Aug-25 19:28N 55°15' E 014°50'0 0.0
2016-Aug-25 18:28N 55°15' E 014°50'0 0.0
2016-Aug-25 17:28N 55°15' E 014°50'0 0.0
2016-Aug-25 16:28N 55°15' E 014°50'0 0.0
2016-Aug-25 15:22N 55°15' E 014°50'0 0.0
2016-Aug-25 14:28N 55°15' E 014°50'0 0.0
2016-Aug-25 13:10N 55°15' E 014°50'0 0.0
2016-Aug-25 12:28N 55°15' E 014°50'0 0.0
2016-Aug-25 11:04N 55°15' E 014°50'0 0.0
2016-Aug-25 09:28N 55°15' E 014°50'0 0.0
2016-Aug-25 08:28N 55°15' E 014°50'0 0.0
2016-Aug-25 07:28N 55°15' E 014°50'0 0.0
2016-Aug-25 04:27N 55°15' E 014°50'0 0.0
2016-Aug-25 03:33N 55°15' E 014°50'0 0.0
2016-Aug-25 02:33N 55°15' E 014°50'0 0.0
2016-Aug-25 00:27N 55°15' E 014°50'0 0.0
2016-Aug-24 23:33N 55°15' E 014°50'0 0.0
2016-Aug-24 21:27N 55°15' E 014°50'0 0.0
2016-Aug-24 20:27N 55°15' E 014°50'0 0.0
2016-Aug-24 19:09N 55°15' E 014°50'0 0.0
2016-Aug-24 17:15N 55°15' E 014°50'0 0.0
2016-Aug-24 16:33N 55°15' E 014°50'0 0.0
2016-Aug-24 15:33N 55°15' E 014°50'0 0.0
2016-Aug-24 14:33N 55°15' E 014°50'0 0.0
2016-Aug-24 13:27N 55°15' E 014°50'0 0.0
2016-Aug-24 12:21N 55°15' E 014°50'0 0.0
2016-Aug-24 11:33N 55°15' E 014°50'0 0.0
2016-Aug-24 09:33N 55°15' E 014°50'0 0.0
2016-Aug-24 08:33N 55°15' E 014°50'2 0.1
2016-Aug-23 16:33N 55°17' E 014°48'0 0.0
2016-Aug-23 15:33N 55°17' E 014°48'0 0.0
2016-Aug-23 14:29N 55°17' E 014°48'0 0.0
2016-Aug-23 13:26N 55°17' E 014°48'0 0.0
2016-Aug-23 12:33N 55°17' E 014°48'0 0.0
2016-Aug-23 11:32N 55°17' E 014°48'0 0.0
2016-Aug-23 10:32N 55°17' E 014°48'0 0.0
2016-Aug-23 09:32N 55°17' E 014°48'0 0.0
2016-Aug-23 08:26N 55°17' E 014°48'0 0.0
2016-Aug-23 07:26N 55°17' E 014°48'0 0.0
2016-Aug-23 06:32N 55°17' E 014°48'0 0.0
2016-Aug-23 05:32N 55°17' E 014°48'0 0.0
2016-Aug-23 04:26N 55°17' E 014°48'0 0.0
2016-Aug-23 03:32N 55°17' E 014°48'0 0.0
2016-Aug-23 02:32N 55°17' E 014°48'0 0.0
2016-Aug-23 01:20N 55°17' E 014°48'0 0.0
2016-Aug-23 00:32N 55°17' E 014°48'0 0.0
2016-Aug-22 23:24N 55°17' E 014°48'0 0.0
2016-Aug-22 22:30N 55°17' E 014°48'0 0.0
2016-Aug-22 21:30N 55°17' E 014°48'0 0.0
2016-Aug-22 20:30N 55°17' E 014°48'2 2.3
2016-Aug-22 19:33N 55°17' E 014°52'2 2.1
2016-Aug-22 18:32N 55°17' E 014°48'0 0.0
2016-Aug-22 17:32N 55°17' E 014°48'0 0.0
2016-Aug-22 16:26N 55°17' E 014°48'0 0.0
2016-Aug-22 15:26N 55°17' E 014°48'0 0.0
2016-Aug-22 14:20N 55°17' E 014°48'2 0.4
2016-Aug-22 09:26N 55°15' E 014°50'0 0.0
2016-Aug-22 08:26N 55°15' E 014°50'0 0.0
2016-Aug-22 07:32N 55°15' E 014°50'0 0.0
2016-Aug-22 05:20N 55°15' E 014°50'0 0.0
2016-Aug-22 04:20N 55°15' E 014°50'0 0.0
2016-Aug-22 03:32N 55°15' E 014°50'0 0.0
2016-Aug-22 00:26N 55°15' E 014°50'3 3.8
2016-Aug-21 23:33N 55°18' E 014°47'1 1.1
2016-Aug-21 22:29N 55°17' E 014°48'0 0.0
2016-Aug-21 21:29N 55°17' E 014°48'0 0.0
2016-Aug-21 20:29N 55°17' E 014°48'0 0.0
2016-Aug-21 19:29N 55°17' E 014°48'0 0.0
2016-Aug-21 18:29N 55°17' E 014°48'0 0.0
2016-Aug-21 17:17N 55°17' E 014°48'0 0.0
2016-Aug-21 16:23N 55°17' E 014°48'0 0.0
2016-Aug-21 15:23N 55°17' E 014°48'0 0.0
2016-Aug-21 14:29N 55°17' E 014°48'0 0.0
2016-Aug-21 13:30N 55°17' E 014°48'0 0.0
2016-Aug-21 12:30N 55°17' E 014°48'0 0.0
2016-Aug-21 11:24N 55°17' E 014°48'0 0.0
2016-Aug-21 10:30N 55°17' E 014°48'0 0.0
2016-Aug-21 09:30N 55°17' E 014°48'0 0.0
2016-Aug-21 08:30N 55°17' E 014°48'0 0.0
2016-Aug-21 07:24N 55°17' E 014°48'5 6.2
2016-Aug-21 06:33N 55°18' E 014°57'5 5.0
2016-Aug-21 05:31N 55°17' E 014°48'0 0.0
2016-Aug-21 04:25N 55°17' E 014°48'0 0.0
2016-Aug-21 03:31N 55°17' E 014°48'0 0.0
2016-Aug-21 02:25N 55°17' E 014°48'0 0.0
2016-Aug-21 01:19N 55°17' E 014°48'0 0.0
2016-Aug-21 00:31N 55°17' E 014°48'0 0.0
2016-Aug-20 23:31N 55°17' E 014°48'0 0.0
2016-Aug-20 22:31N 55°17' E 014°48'0 0.0
2016-Aug-20 21:32N 55°17' E 014°48'0 0.0
2016-Aug-20 20:32N 55°17' E 014°48'0 0.0
2016-Aug-20 19:31N 55°17' E 014°48'0 0.0
2016-Aug-20 18:26N 55°17' E 014°48'0 0.0
2016-Aug-20 17:26N 55°17' E 014°48'0 0.0
2016-Aug-20 16:31N 55°17' E 014°48'1 0.3
2016-Aug-20 12:33N 55°17' E 014°50'1 1.0
2016-Aug-20 11:23N 55°17' E 014°48'0 0.0
2016-Aug-20 10:05N 55°17' E 014°48'0 0.0
2016-Aug-20 09:23N 55°17' E 014°48'0 0.0
2016-Aug-20 07:28N 55°17' E 014°48'0 0.0
2016-Aug-20 06:22N 55°17' E 014°48'0 0.0
2016-Aug-20 05:32N 55°17' E 014°48'0 0.0
2016-Aug-20 04:32N 55°17' E 014°48'0 0.0
2016-Aug-20 03:32N 55°17' E 014°48'2 2.0
2016-Aug-20 02:28N 55°15' E 014°50'0 0.0
2016-Aug-20 00:22N 55°15' E 014°50'0 0.0
2016-Aug-19 23:16N 55°15' E 014°50'0 0.0
2016-Aug-19 22:28N 55°15' E 014°50'0 0.0
2016-Aug-19 21:28N 55°15' E 014°50'0 0.0
2016-Aug-19 20:28N 55°15' E 014°50'0 0.0
2016-Aug-19 19:28N 55°15' E 014°50'0 0.0
2016-Aug-19 18:28N 55°15' E 014°50'0 0.0
2016-Aug-19 17:22N 55°15' E 014°50'0 0.0
2016-Aug-19 16:34N 55°15' E 014°50'0 0.0
2016-Aug-19 15:34N 55°15' E 014°50'0 0.0
2016-Aug-19 14:33N 55°15' E 014°50'0 0.0
2016-Aug-19 13:33N 55°15' E 014°50'0 0.0
2016-Aug-19 12:33N 55°15' E 014°50'0 0.0
2016-Aug-19 11:27N 55°15' E 014°50'0 0.0
2016-Aug-19 10:33N 55°15' E 014°50'0 0.0
2016-Aug-19 09:21N 55°15' E 014°50'0 0.0
2016-Aug-19 08:33N 55°15' E 014°50'0 0.0
2016-Aug-19 07:33N 55°15' E 014°50'0 0.1
2016-Aug-19 06:28N 55°15' E 014°50'0 0.0
2016-Aug-19 05:28N 55°15' E 014°50'0 0.0
2016-Aug-19 04:28N 55°15' E 014°50'0 0.0
2016-Aug-19 03:16N 55°15' E 014°50'0 0.0
2016-Aug-19 02:28N 55°15' E 014°50'0 0.0
2016-Aug-19 01:28N 55°15' E 014°50'0 0.0
2016-Aug-19 00:28N 55°15' E 014°50'0 0.0
2016-Aug-18 23:28N 55°15' E 014°50'0 0.0
2016-Aug-18 22:28N 55°15' E 014°50'0 0.0
2016-Aug-18 21:22N 55°15' E 014°50'0 0.0
2016-Aug-18 20:16N 55°15' E 014°50'0 0.0
2016-Aug-18 19:04N 55°15' E 014°50'0 0.0
2016-Aug-18 18:22N 55°15' E 014°50'0 0.0
2016-Aug-18 17:22N 55°15' E 014°50'0 0.0
2016-Aug-18 16:28N 55°15' E 014°50'0 0.0
2016-Aug-18 15:28N 55°15' E 014°50'0 0.0
2016-Aug-18 14:28N 55°15' E 014°50'0 0.0
2016-Aug-18 13:16N 55°15' E 014°50'0 0.0
2016-Aug-18 12:28N 55°15' E 014°50'0 0.0
2016-Aug-18 11:22N 55°15' E 014°50'0 0.0
2016-Aug-18 10:22N 55°15' E 014°50'0 0.0
2016-Aug-18 09:22N 55°15' E 014°50'  

Dump ship's entire track history